sensor_id;sensor_type;location;lat;lon;timestamp;P1;durP1;ratioP1;P2;durP2;ratioP2
50737;SDS011;36703;48.154;17.126;2022-12-29T00:04:20;14.35;;;7.35;;
50737;SDS011;36703;48.154;17.126;2022-12-29T00:08:22;13.32;;;7.05;;
50737;SDS011;36703;48.154;17.126;2022-12-29T00:12:40;13.73;;;7.28;;
50737;SDS011;36703;48.154;17.126;2022-12-29T00:17:00;14.93;;;8.05;;
50737;SDS011;36703;48.154;17.126;2022-12-29T00:21:01;14.35;;;7.57;;
50737;SDS011;36703;48.154;17.126;2022-12-29T00:25:22;13.75;;;7.20;;
50737;SDS011;36703;48.154;17.126;2022-12-29T00:29:42;12.93;;;7.45;;
50737;SDS011;36703;48.154;17.126;2022-12-29T00:34:02;15.27;;;7.25;;
50737;SDS011;36703;48.154;17.126;2022-12-29T00:38:22;11.77;;;6.75;;
50737;SDS011;36703;48.154;17.126;2022-12-29T00:42:42;14.05;;;7.72;;
50737;SDS011;36703;48.154;17.126;2022-12-29T00:47:01;14.00;;;7.35;;
50737;SDS011;36703;48.154;17.126;2022-12-29T00:51:06;18.23;;;7.93;;
50737;SDS011;36703;48.154;17.126;2022-12-29T00:55:08;13.85;;;6.85;;
50737;SDS011;36703;48.154;17.126;2022-12-29T01:07:13;14.18;;;7.50;;
50737;SDS011;36703;48.154;17.126;2022-12-29T01:11:15;11.93;;;7.28;;
50737;SDS011;36703;48.154;17.126;2022-12-29T01:15:17;17.10;;;7.28;;
50737;SDS011;36703;48.154;17.126;2022-12-29T01:19:19;14.27;;;7.15;;
50737;SDS011;36703;48.154;17.126;2022-12-29T01:23:21;15.18;;;7.45;;
50737;SDS011;36703;48.154;17.126;2022-12-29T01:31:24;13.48;;;7.05;;
50737;SDS011;36703;48.154;17.126;2022-12-29T01:35:28;13.82;;;7.00;;
50737;SDS011;36703;48.154;17.126;2022-12-29T01:39:32;14.82;;;7.25;;
50737;SDS011;36703;48.154;17.126;2022-12-29T01:47:58;13.93;;;6.82;;
50737;SDS011;36703;48.154;17.126;2022-12-29T01:52:04;15.32;;;7.47;;
50737;SDS011;36703;48.154;17.126;2022-12-29T01:56:09;15.13;;;7.72;;
50737;SDS011;36703;48.154;17.126;2022-12-29T02:00:18;14.10;;;7.53;;
50737;SDS011;36703;48.154;17.126;2022-12-29T02:04:22;13.65;;;7.22;;
50737;SDS011;36703;48.154;17.126;2022-12-29T02:08:26;15.40;;;7.78;;
50737;SDS011;36703;48.154;17.126;2022-12-29T02:12:30;16.63;;;7.18;;
50737;SDS011;36703;48.154;17.126;2022-12-29T02:21:04;15.10;;;7.95;;
50737;SDS011;36703;48.154;17.126;2022-12-29T02:25:51;15.43;;;8.05;;
50737;SDS011;36703;48.154;17.126;2022-12-29T02:34:51;15.20;;;7.22;;
50737;SDS011;36703;48.154;17.126;2022-12-29T02:56:23;19.30;;;8.80;;
50737;SDS011;36703;48.154;17.126;2022-12-29T03:09:33;14.88;;;8.82;;
50737;SDS011;36703;48.154;17.126;2022-12-29T03:13:56;16.67;;;8.88;;
50737;SDS011;36703;48.154;17.126;2022-12-29T03:18:35;17.50;;;8.73;;
50737;SDS011;36703;48.154;17.126;2022-12-29T03:22:46;19.88;;;8.55;;
50737;SDS011;36703;48.154;17.126;2022-12-29T03:26:57;16.92;;;8.57;;
50737;SDS011;36703;48.154;17.126;2022-12-29T03:31:04;15.82;;;8.40;;
50737;SDS011;36703;48.154;17.126;2022-12-29T03:35:09;18.60;;;9.07;;
50737;SDS011;36703;48.154;17.126;2022-12-29T03:39:15;17.98;;;8.98;;
50737;SDS011;36703;48.154;17.126;2022-12-29T03:43:20;16.20;;;9.30;;
50737;SDS011;36703;48.154;17.126;2022-12-29T03:47:23;17.30;;;9.55;;
50737;SDS011;36703;48.154;17.126;2022-12-29T03:51:25;17.25;;;9.63;;
50737;SDS011;36703;48.154;17.126;2022-12-29T03:55:28;17.05;;;8.90;;
50737;SDS011;36703;48.154;17.126;2022-12-29T03:59:31;16.55;;;8.88;;
50737;SDS011;36703;48.154;17.126;2022-12-29T04:07:34;18.98;;;10.23;;
50737;SDS011;36703;48.154;17.126;2022-12-29T04:11:37;21.85;;;9.55;;
50737;SDS011;36703;48.154;17.126;2022-12-29T04:15:40;22.75;;;10.48;;
50737;SDS011;36703;48.154;17.126;2022-12-29T04:19:43;22.70;;;10.07;;
50737;SDS011;36703;48.154;17.126;2022-12-29T04:23:44;20.52;;;9.85;;
50737;SDS011;36703;48.154;17.126;2022-12-29T04:27:47;22.45;;;10.30;;
50737;SDS011;36703;48.154;17.126;2022-12-29T04:32:15;21.60;;;10.40;;
50737;SDS011;36703;48.154;17.126;2022-12-29T04:36:22;18.65;;;10.27;;
50737;SDS011;36703;48.154;17.126;2022-12-29T04:40:24;17.75;;;9.85;;
50737;SDS011;36703;48.154;17.126;2022-12-29T04:44:26;19.17;;;10.27;;
50737;SDS011;36703;48.154;17.126;2022-12-29T04:48:36;19.48;;;10.27;;
50737;SDS011;36703;48.154;17.126;2022-12-29T04:53:00;19.40;;;9.93;;
50737;SDS011;36703;48.154;17.126;2022-12-29T04:57:02;18.70;;;11.02;;
50737;SDS011;36703;48.154;17.126;2022-12-29T05:01:03;20.40;;;10.40;;
50737;SDS011;36703;48.154;17.126;2022-12-29T05:05:05;21.35;;;10.38;;
50737;SDS011;36703;48.154;17.126;2022-12-29T05:09:10;21.95;;;10.65;;
50737;SDS011;36703;48.154;17.126;2022-12-29T05:17:14;27.08;;;11.85;;
50737;SDS011;36703;48.154;17.126;2022-12-29T05:25:19;22.75;;;10.80;;
50737;SDS011;36703;48.154;17.126;2022-12-29T05:29:33;21.52;;;10.55;;
50737;SDS011;36703;48.154;17.126;2022-12-29T05:33:34;20.95;;;10.93;;
50737;SDS011;36703;48.154;17.126;2022-12-29T05:41:38;23.25;;;11.45;;
50737;SDS011;36703;48.154;17.126;2022-12-29T05:45:56;21.73;;;11.27;;
50737;SDS011;36703;48.154;17.126;2022-12-29T05:50:07;20.13;;;11.27;;
50737;SDS011;36703;48.154;17.126;2022-12-29T05:54:27;19.75;;;11.15;;
50737;SDS011;36703;48.154;17.126;2022-12-29T05:58:30;20.08;;;10.98;;
50737;SDS011;36703;48.154;17.126;2022-12-29T06:02:32;21.73;;;10.38;;
50737;SDS011;36703;48.154;17.126;2022-12-29T06:06:34;23.38;;;12.32;;
50737;SDS011;36703;48.154;17.126;2022-12-29T06:10:37;20.75;;;11.00;;
50737;SDS011;36703;48.154;17.126;2022-12-29T06:14:42;22.23;;;11.85;;
50737;SDS011;36703;48.154;17.126;2022-12-29T06:18:44;25.45;;;12.77;;
50737;SDS011;36703;48.154;17.126;2022-12-29T06:22:46;21.42;;;11.75;;
50737;SDS011;36703;48.154;17.126;2022-12-29T06:26:48;19.23;;;10.70;;
50737;SDS011;36703;48.154;17.126;2022-12-29T06:34:52;24.85;;;10.93;;
50737;SDS011;36703;48.154;17.126;2022-12-29T06:42:57;22.13;;;12.02;;
50737;SDS011;36703;48.154;17.126;2022-12-29T06:47:14;22.15;;;10.60;;
50737;SDS011;36703;48.154;17.126;2022-12-29T06:51:16;23.63;;;11.43;;
50737;SDS011;36703;48.154;17.126;2022-12-29T06:59:19;22.63;;;10.93;;
50737;SDS011;36703;48.154;17.126;2022-12-29T07:07:21;25.02;;;11.63;;
50737;SDS011;36703;48.154;17.126;2022-12-29T07:11:23;22.00;;;11.50;;
50737;SDS011;36703;48.154;17.126;2022-12-29T07:15:25;21.17;;;11.73;;
50737;SDS011;36703;48.154;17.126;2022-12-29T07:23:28;23.17;;;11.55;;
50737;SDS011;36703;48.154;17.126;2022-12-29T07:27:29;24.88;;;12.18;;
50737;SDS011;36703;48.154;17.126;2022-12-29T07:35:35;27.23;;;11.45;;
50737;SDS011;36703;48.154;17.126;2022-12-29T07:39:37;26.48;;;12.70;;
50737;SDS011;36703;48.154;17.126;2022-12-29T07:47:57;23.77;;;12.25;;
50737;SDS011;36703;48.154;17.126;2022-12-29T07:56:00;26.98;;;11.88;;
50737;SDS011;36703;48.154;17.126;2022-12-29T08:04:12;22.80;;;11.67;;
50737;SDS011;36703;48.154;17.126;2022-12-29T08:08:14;28.55;;;12.30;;
50737;SDS011;36703;48.154;17.126;2022-12-29T08:12:15;21.58;;;11.63;;
50737;SDS011;36703;48.154;17.126;2022-12-29T08:20:18;22.55;;;11.90;;
50737;SDS011;36703;48.154;17.126;2022-12-29T08:24:20;19.10;;;10.90;;
50737;SDS011;36703;48.154;17.126;2022-12-29T08:28:22;22.48;;;10.98;;
50737;SDS011;36703;48.154;17.126;2022-12-29T08:36:24;25.80;;;11.70;;
50737;SDS011;36703;48.154;17.126;2022-12-29T08:44:27;19.65;;;10.20;;
50737;SDS011;36703;48.154;17.126;2022-12-29T08:52:30;21.42;;;11.77;;
50737;SDS011;36703;48.154;17.126;2022-12-29T09:00:34;24.10;;;12.40;;
50737;SDS011;36703;48.154;17.126;2022-12-29T09:04:36;22.98;;;12.43;;
50737;SDS011;36703;48.154;17.126;2022-12-29T09:08:38;22.55;;;12.73;;
50737;SDS011;36703;48.154;17.126;2022-12-29T09:12:39;21.90;;;12.48;;
50737;SDS011;36703;48.154;17.126;2022-12-29T09:16:41;21.38;;;12.00;;
50737;SDS011;36703;48.154;17.126;2022-12-29T09:21:03;25.40;;;12.95;;
50737;SDS011;36703;48.154;17.126;2022-12-29T09:25:06;27.25;;;13.50;;
50737;SDS011;36703;48.154;17.126;2022-12-29T09:29:09;23.30;;;12.23;;
50737;SDS011;36703;48.154;17.126;2022-12-29T09:37:12;27.17;;;12.93;;
50737;SDS011;36703;48.154;17.126;2022-12-29T09:41:17;22.85;;;12.63;;
50737;SDS011;36703;48.154;17.126;2022-12-29T09:45:44;24.42;;;12.80;;
50737;SDS011;36703;48.154;17.126;2022-12-29T09:49:54;23.48;;;12.70;;
50737;SDS011;36703;48.154;17.126;2022-12-29T09:58:57;20.85;;;12.15;;
50737;SDS011;36703;48.154;17.126;2022-12-29T10:07:21;24.90;;;12.75;;
50737;SDS011;36703;48.154;17.126;2022-12-29T10:25:38;24.08;;;13.35;;
50737;SDS011;36703;48.154;17.126;2022-12-29T10:29:43;22.50;;;12.90;;
50737;SDS011;36703;48.154;17.126;2022-12-29T10:33:57;23.33;;;12.83;;
50737;SDS011;36703;48.154;17.126;2022-12-29T10:38:30;25.35;;;13.52;;
50737;SDS011;36703;48.154;17.126;2022-12-29T10:42:45;25.77;;;14.30;;
50737;SDS011;36703;48.154;17.126;2022-12-29T10:46:59;21.92;;;11.32;;
50737;SDS011;36703;48.154;17.126;2022-12-29T10:51:07;27.00;;;13.32;;
50737;SDS011;36703;48.154;17.126;2022-12-29T10:55:12;25.83;;;14.60;;
50737;SDS011;36703;48.154;17.126;2022-12-29T10:59:21;23.55;;;13.45;;
50737;SDS011;36703;48.154;17.126;2022-12-29T11:03:45;23.98;;;13.38;;
50737;SDS011;36703;48.154;17.126;2022-12-29T11:08:04;26.23;;;12.13;;
50737;SDS011;36703;48.154;17.126;2022-12-29T11:12:21;24.13;;;14.15;;
50737;SDS011;36703;48.154;17.126;2022-12-29T11:16:31;25.58;;;14.15;;
50737;SDS011;36703;48.154;17.126;2022-12-29T11:20:38;24.52;;;13.00;;
50737;SDS011;36703;48.154;17.126;2022-12-29T11:24:44;26.60;;;13.98;;
50737;SDS011;36703;48.154;17.126;2022-12-29T11:29:03;25.05;;;14.32;;
50737;SDS011;36703;48.154;17.126;2022-12-29T11:33:17;24.20;;;14.00;;
50737;SDS011;36703;48.154;17.126;2022-12-29T11:37:19;27.73;;;14.60;;
50737;SDS011;36703;48.154;17.126;2022-12-29T11:41:46;29.25;;;15.30;;
50737;SDS011;36703;48.154;17.126;2022-12-29T11:45:53;28.47;;;14.73;;
50737;SDS011;36703;48.154;17.126;2022-12-29T11:49:58;25.67;;;14.13;;
50737;SDS011;36703;48.154;17.126;2022-12-29T11:54:03;25.73;;;12.48;;
50737;SDS011;36703;48.154;17.126;2022-12-29T11:58:06;26.02;;;14.35;;
50737;SDS011;36703;48.154;17.126;2022-12-29T12:06:32;42.40;;;22.60;;
50737;SDS011;36703;48.154;17.126;2022-12-29T12:10:47;26.47;;;14.00;;
50737;SDS011;36703;48.154;17.126;2022-12-29T12:14:59;27.95;;;15.00;;
50737;SDS011;36703;48.154;17.126;2022-12-29T12:28:53;25.92;;;14.07;;
50737;SDS011;36703;48.154;17.126;2022-12-29T12:37:55;24.45;;;14.00;;
50737;SDS011;36703;48.154;17.126;2022-12-29T13:00:13;26.55;;;14.05;;
50737;SDS011;36703;48.154;17.126;2022-12-29T13:22:54;26.52;;;14.60;;
50737;SDS011;36703;48.154;17.126;2022-12-29T13:31:54;25.25;;;15.27;;
50737;SDS011;36703;48.154;17.126;2022-12-29T13:40:45;26.83;;;15.15;;
50737;SDS011;36703;48.154;17.126;2022-12-29T13:45:02;25.17;;;15.18;;
50737;SDS011;36703;48.154;17.126;2022-12-29T13:49:18;24.17;;;14.07;;
50737;SDS011;36703;48.154;17.126;2022-12-29T14:10:32;29.40;;;15.68;;
50737;SDS011;36703;48.154;17.126;2022-12-29T14:14:49;29.00;;;15.98;;
50737;SDS011;36703;48.154;17.126;2022-12-29T14:18:51;24.25;;;15.15;;
50737;SDS011;36703;48.154;17.126;2022-12-29T14:23:14;27.52;;;15.63;;
50737;SDS011;36703;48.154;17.126;2022-12-29T14:35:43;28.40;;;14.60;;
50737;SDS011;36703;48.154;17.126;2022-12-29T14:39:50;29.63;;;16.45;;
50737;SDS011;36703;48.154;17.126;2022-12-29T14:44:23;30.42;;;17.13;;
50737;SDS011;36703;48.154;17.126;2022-12-29T14:48:30;28.10;;;17.25;;
50737;SDS011;36703;48.154;17.126;2022-12-29T14:53:03;30.65;;;17.05;;
50737;SDS011;36703;48.154;17.126;2022-12-29T14:57:08;31.83;;;17.80;;
50737;SDS011;36703;48.154;17.126;2022-12-29T15:01:39;35.08;;;19.90;;
50737;SDS011;36703;48.154;17.126;2022-12-29T15:05:49;38.58;;;21.55;;
50737;SDS011;36703;48.154;17.126;2022-12-29T15:09:53;38.10;;;21.17;;
50737;SDS011;36703;48.154;17.126;2022-12-29T15:14:29;35.33;;;20.67;;
50737;SDS011;36703;48.154;17.126;2022-12-29T15:18:40;35.55;;;20.08;;
50737;SDS011;36703;48.154;17.126;2022-12-29T15:22:44;33.13;;;17.80;;
50737;SDS011;36703;48.154;17.126;2022-12-29T15:26:46;36.38;;;18.92;;
50737;SDS011;36703;48.154;17.126;2022-12-29T15:30:57;31.33;;;18.83;;
50737;SDS011;36703;48.154;17.126;2022-12-29T15:39:30;46.53;;;23.48;;
50737;SDS011;36703;48.154;17.126;2022-12-29T15:48:01;34.13;;;18.88;;
50737;SDS011;36703;48.154;17.126;2022-12-29T15:52:08;35.70;;;20.02;;
50737;SDS011;36703;48.154;17.126;2022-12-29T15:56:10;38.15;;;19.98;;
50737;SDS011;36703;48.154;17.126;2022-12-29T16:04:40;38.97;;;19.67;;
50737;SDS011;36703;48.154;17.126;2022-12-29T16:08:43;37.10;;;20.65;;
50737;SDS011;36703;48.154;17.126;2022-12-29T16:13:04;38.70;;;20.52;;
50737;SDS011;36703;48.154;17.126;2022-12-29T16:17:21;35.58;;;20.80;;
50737;SDS011;36703;48.154;17.126;2022-12-29T16:21:28;40.35;;;21.83;;
50737;SDS011;36703;48.154;17.126;2022-12-29T16:25:34;44.20;;;21.92;;
50737;SDS011;36703;48.154;17.126;2022-12-29T16:29:38;39.47;;;21.63;;
50737;SDS011;36703;48.154;17.126;2022-12-29T16:33:47;43.28;;;22.83;;
50737;SDS011;36703;48.154;17.126;2022-12-29T16:42:33;38.33;;;22.42;;
50737;SDS011;36703;48.154;17.126;2022-12-29T16:46:36;39.83;;;20.70;;
50737;SDS011;36703;48.154;17.126;2022-12-29T16:50:46;38.42;;;21.73;;
50737;SDS011;36703;48.154;17.126;2022-12-29T16:54:58;37.65;;;21.48;;
50737;SDS011;36703;48.154;17.126;2022-12-29T17:03:34;36.42;;;20.48;;
50737;SDS011;36703;48.154;17.126;2022-12-29T17:07:40;40.63;;;22.60;;
50737;SDS011;36703;48.154;17.126;2022-12-29T17:11:41;39.58;;;21.42;;
50737;SDS011;36703;48.154;17.126;2022-12-29T17:15:54;40.42;;;21.63;;
50737;SDS011;36703;48.154;17.126;2022-12-29T17:24:04;42.15;;;21.02;;
50737;SDS011;36703;48.154;17.126;2022-12-29T17:28:21;36.90;;;21.50;;
50737;SDS011;36703;48.154;17.126;2022-12-29T17:32:27;39.13;;;20.45;;
50737;SDS011;36703;48.154;17.126;2022-12-29T17:36:29;38.08;;;21.73;;
50737;SDS011;36703;48.154;17.126;2022-12-29T17:44:33;37.20;;;21.05;;
50737;SDS011;36703;48.154;17.126;2022-12-29T17:52:36;38.50;;;19.83;;
50737;SDS011;36703;48.154;17.126;2022-12-29T18:00:38;38.65;;;20.92;;
50737;SDS011;36703;48.154;17.126;2022-12-29T18:04:40;42.97;;;21.63;;
50737;SDS011;36703;48.154;17.126;2022-12-29T18:12:45;40.55;;;21.90;;
50737;SDS011;36703;48.154;17.126;2022-12-29T18:16:49;42.20;;;22.65;;
50737;SDS011;36703;48.154;17.126;2022-12-29T18:24:56;37.30;;;20.55;;
50737;SDS011;36703;48.154;17.126;2022-12-29T18:32:59;41.60;;;21.92;;
50737;SDS011;36703;48.154;17.126;2022-12-29T18:37:01;39.28;;;21.50;;
50737;SDS011;36703;48.154;17.126;2022-12-29T18:41:02;40.47;;;22.38;;
50737;SDS011;36703;48.154;17.126;2022-12-29T18:49:35;39.90;;;23.00;;
50737;SDS011;36703;48.154;17.126;2022-12-29T18:57:38;38.22;;;22.30;;
50737;SDS011;36703;48.154;17.126;2022-12-29T19:01:39;53.42;;;28.73;;
50737;SDS011;36703;48.154;17.126;2022-12-29T19:09:44;42.53;;;23.02;;
50737;SDS011;36703;48.154;17.126;2022-12-29T19:17:47;38.60;;;22.00;;
50737;SDS011;36703;48.154;17.126;2022-12-29T19:21:48;41.80;;;22.95;;
50737;SDS011;36703;48.154;17.126;2022-12-29T19:25:56;42.28;;;22.98;;
50737;SDS011;36703;48.154;17.126;2022-12-29T19:33:59;44.90;;;23.13;;
50737;SDS011;36703;48.154;17.126;2022-12-29T19:38:02;41.13;;;23.15;;
50737;SDS011;36703;48.154;17.126;2022-12-29T19:42:04;45.53;;;23.75;;
50737;SDS011;36703;48.154;17.126;2022-12-29T19:46:07;60.72;;;34.03;;
50737;SDS011;36703;48.154;17.126;2022-12-29T19:50:11;41.60;;;24.10;;
50737;SDS011;36703;48.154;17.126;2022-12-29T19:54:15;45.50;;;25.23;;
50737;SDS011;36703;48.154;17.126;2022-12-29T20:02:19;41.85;;;23.23;;
50737;SDS011;36703;48.154;17.126;2022-12-29T20:06:27;40.47;;;23.95;;
50737;SDS011;36703;48.154;17.126;2022-12-29T20:14:30;40.03;;;22.58;;
50737;SDS011;36703;48.154;17.126;2022-12-29T20:22:35;44.40;;;24.75;;
50737;SDS011;36703;48.154;17.126;2022-12-29T20:26:37;44.92;;;24.02;;
50737;SDS011;36703;48.154;17.126;2022-12-29T20:30:38;42.05;;;24.48;;
50737;SDS011;36703;48.154;17.126;2022-12-29T20:38:43;45.22;;;23.73;;
50737;SDS011;36703;48.154;17.126;2022-12-29T20:42:45;45.53;;;23.42;;
50737;SDS011;36703;48.154;17.126;2022-12-29T20:54:50;42.83;;;23.52;;
50737;SDS011;36703;48.154;17.126;2022-12-29T20:58:53;40.83;;;22.98;;
50737;SDS011;36703;48.154;17.126;2022-12-29T21:02:55;42.05;;;23.33;;
50737;SDS011;36703;48.154;17.126;2022-12-29T21:06:58;43.78;;;24.92;;
50737;SDS011;36703;48.154;17.126;2022-12-29T21:11:00;42.03;;;23.27;;
50737;SDS011;36703;48.154;17.126;2022-12-29T21:15:02;50.72;;;26.52;;
50737;SDS011;36703;48.154;17.126;2022-12-29T21:19:03;60.80;;;32.63;;
50737;SDS011;36703;48.154;17.126;2022-12-29T21:23:05;47.13;;;24.90;;
50737;SDS011;36703;48.154;17.126;2022-12-29T21:27:07;41.50;;;23.23;;
50737;SDS011;36703;48.154;17.126;2022-12-29T21:35:23;40.92;;;22.42;;
50737;SDS011;36703;48.154;17.126;2022-12-29T21:39:25;38.22;;;22.75;;
50737;SDS011;36703;48.154;17.126;2022-12-29T21:43:27;44.97;;;22.98;;
50737;SDS011;36703;48.154;17.126;2022-12-29T21:51:53;43.10;;;22.00;;
50737;SDS011;36703;48.154;17.126;2022-12-29T21:55:57;43.28;;;22.25;;
50737;SDS011;36703;48.154;17.126;2022-12-29T22:04:20;38.30;;;19.90;;
50737;SDS011;36703;48.154;17.126;2022-12-29T22:08:42;41.88;;;21.92;;
50737;SDS011;36703;48.154;17.126;2022-12-29T22:13:02;45.70;;;23.05;;
50737;SDS011;36703;48.154;17.126;2022-12-29T22:17:03;43.03;;;23.90;;
50737;SDS011;36703;48.154;17.126;2022-12-29T22:25:08;40.22;;;22.70;;
50737;SDS011;36703;48.154;17.126;2022-12-29T22:29:10;40.10;;;23.08;;
50737;SDS011;36703;48.154;17.126;2022-12-29T22:37:13;45.20;;;23.52;;
50737;SDS011;36703;48.154;17.126;2022-12-29T22:41:16;45.40;;;24.08;;
50737;SDS011;36703;48.154;17.126;2022-12-29T22:45:17;48.03;;;25.05;;
50737;SDS011;36703;48.154;17.126;2022-12-29T22:53:20;43.20;;;23.45;;
50737;SDS011;36703;48.154;17.126;2022-12-29T23:09:27;44.92;;;22.92;;
50737;SDS011;36703;48.154;17.126;2022-12-29T23:17:30;44.60;;;23.67;;
50737;SDS011;36703;48.154;17.126;2022-12-29T23:25:36;39.55;;;22.60;;
50737;SDS011;36703;48.154;17.126;2022-12-29T23:29:38;43.38;;;24.05;;
50737;SDS011;36703;48.154;17.126;2022-12-29T23:37:41;40.03;;;22.92;;
50737;SDS011;36703;48.154;17.126;2022-12-29T23:41:43;40.95;;;23.27;;
50737;SDS011;36703;48.154;17.126;2022-12-29T23:49:45;38.78;;;22.63;;
50737;SDS011;36703;48.154;17.126;2022-12-29T23:57:48;41.53;;;22.23;;
